sensor_id;sensor_type;location;lat;lon;timestamp;P1;durP1;ratioP1;P2;durP2;ratioP2
25111;SDS011;13092;51.996;4.458;2024-03-29T00:02:13;7.22;;;1.85;;
25111;SDS011;13092;51.996;4.458;2024-03-29T00:04:39;5.20;;;1.63;;
25111;SDS011;13092;51.996;4.458;2024-03-29T00:07:06;5.03;;;1.60;;
25111;SDS011;13092;51.996;4.458;2024-03-29T00:09:32;7.85;;;2.20;;
25111;SDS011;13092;51.996;4.458;2024-03-29T00:11:58;5.13;;;1.90;;
25111;SDS011;13092;51.996;4.458;2024-03-29T00:14:26;6.97;;;1.77;;
25111;SDS011;13092;51.996;4.458;2024-03-29T00:16:54;9.73;;;2.30;;
25111;SDS011;13092;51.996;4.458;2024-03-29T00:19:20;7.40;;;2.50;;
25111;SDS011;13092;51.996;4.458;2024-03-29T00:21:47;6.53;;;2.00;;
25111;SDS011;13092;51.996;4.458;2024-03-29T00:24:13;4.45;;;1.60;;
25111;SDS011;13092;51.996;4.458;2024-03-29T00:26:39;4.95;;;1.50;;
25111;SDS011;13092;51.996;4.458;2024-03-29T00:29:05;5.07;;;1.48;;
25111;SDS011;13092;51.996;4.458;2024-03-29T00:31:33;11.48;;;2.22;;
25111;SDS011;13092;51.996;4.458;2024-03-29T00:34:00;9.15;;;1.80;;
25111;SDS011;13092;51.996;4.458;2024-03-29T00:36:29;7.13;;;1.70;;
25111;SDS011;13092;51.996;4.458;2024-03-29T00:38:58;3.90;;;1.55;;
25111;SDS011;13092;51.996;4.458;2024-03-29T00:41:24;6.13;;;2.30;;
25111;SDS011;13092;51.996;4.458;2024-03-29T00:43:50;4.15;;;1.70;;
25111;SDS011;13092;51.996;4.458;2024-03-29T00:46:17;8.13;;;2.03;;
25111;SDS011;13092;51.996;4.458;2024-03-29T00:48:45;7.32;;;2.28;;
25111;SDS011;13092;51.996;4.458;2024-03-29T00:51:11;6.13;;;1.80;;
25111;SDS011;13092;51.996;4.458;2024-03-29T00:53:38;9.57;;;2.35;;
25111;SDS011;13092;51.996;4.458;2024-03-29T00:56:07;9.05;;;1.95;;
25111;SDS011;13092;51.996;4.458;2024-03-29T00:58:33;3.85;;;1.73;;
25111;SDS011;13092;51.996;4.458;2024-03-29T01:00:59;7.72;;;2.10;;
25111;SDS011;13092;51.996;4.458;2024-03-29T01:03:26;6.97;;;1.90;;
25111;SDS011;13092;51.996;4.458;2024-03-29T01:05:54;7.28;;;1.60;;
25111;SDS011;13092;51.996;4.458;2024-03-29T01:08:20;10.50;;;2.28;;
25111;SDS011;13092;51.996;4.458;2024-03-29T01:10:46;8.88;;;2.00;;
25111;SDS011;13092;51.996;4.458;2024-03-29T01:13:13;6.28;;;1.85;;
25111;SDS011;13092;51.996;4.458;2024-03-29T01:15:39;7.47;;;2.10;;
25111;SDS011;13092;51.996;4.458;2024-03-29T01:18:05;11.25;;;2.38;;
25111;SDS011;13092;51.996;4.458;2024-03-29T01:20:31;4.30;;;1.77;;
25111;SDS011;13092;51.996;4.458;2024-03-29T01:22:59;18.10;;;2.45;;
25111;SDS011;13092;51.996;4.458;2024-03-29T01:25:27;9.30;;;1.98;;
25111;SDS011;13092;51.996;4.458;2024-03-29T01:27:54;10.02;;;1.83;;
25111;SDS011;13092;51.996;4.458;2024-03-29T01:30:20;6.70;;;1.75;;
25111;SDS011;13092;51.996;4.458;2024-03-29T01:32:47;7.65;;;2.05;;
25111;SDS011;13092;51.996;4.458;2024-03-29T01:35:16;7.47;;;1.88;;
25111;SDS011;13092;51.996;4.458;2024-03-29T01:37:42;4.32;;;1.60;;
25111;SDS011;13092;51.996;4.458;2024-03-29T01:40:13;3.70;;;1.60;;
25111;SDS011;13092;51.996;4.458;2024-03-29T01:42:39;7.00;;;1.83;;
25111;SDS011;13092;51.996;4.458;2024-03-29T01:45:06;9.80;;;1.90;;
25111;SDS011;13092;51.996;4.458;2024-03-29T01:47:34;6.38;;;1.60;;
25111;SDS011;13092;51.996;4.458;2024-03-29T01:50:01;8.07;;;2.00;;
25111;SDS011;13092;51.996;4.458;2024-03-29T01:52:31;7.57;;;1.95;;
25111;SDS011;13092;51.996;4.458;2024-03-29T01:54:58;7.80;;;1.73;;
25111;SDS011;13092;51.996;4.458;2024-03-29T01:57:28;6.50;;;1.75;;
25111;SDS011;13092;51.996;4.458;2024-03-29T01:59:55;9.23;;;2.00;;
25111;SDS011;13092;51.996;4.458;2024-03-29T02:02:23;9.02;;;2.28;;
25111;SDS011;13092;51.996;4.458;2024-03-29T02:04:51;8.90;;;2.72;;
25111;SDS011;13092;51.996;4.458;2024-03-29T02:07:18;6.15;;;1.90;;
25111;SDS011;13092;51.996;4.458;2024-03-29T02:09:48;6.53;;;1.85;;
25111;SDS011;13092;51.996;4.458;2024-03-29T02:12:15;8.13;;;2.50;;
25111;SDS011;13092;51.996;4.458;2024-03-29T02:14:44;6.35;;;2.05;;
25111;SDS011;13092;51.996;4.458;2024-03-29T02:17:11;7.78;;;2.17;;
25111;SDS011;13092;51.996;4.458;2024-03-29T02:19:38;8.05;;;1.98;;
25111;SDS011;13092;51.996;4.458;2024-03-29T02:22:06;7.18;;;1.80;;
25111;SDS011;13092;51.996;4.458;2024-03-29T02:24:37;9.18;;;2.00;;
25111;SDS011;13092;51.996;4.458;2024-03-29T02:27:04;7.00;;;1.58;;
25111;SDS011;13092;51.996;4.458;2024-03-29T02:29:31;5.95;;;1.73;;
25111;SDS011;13092;51.996;4.458;2024-03-29T02:31:58;6.72;;;1.63;;
25111;SDS011;13092;51.996;4.458;2024-03-29T02:34:25;7.25;;;1.70;;
25111;SDS011;13092;51.996;4.458;2024-03-29T02:36:53;6.20;;;1.83;;
25111;SDS011;13092;51.996;4.458;2024-03-29T02:39:21;8.73;;;1.77;;
25111;SDS011;13092;51.996;4.458;2024-03-29T02:41:50;5.85;;;2.60;;
25111;SDS011;13092;51.996;4.458;2024-03-29T02:44:17;7.25;;;1.60;;
25111;SDS011;13092;51.996;4.458;2024-03-29T02:46:45;8.88;;;2.25;;
25111;SDS011;13092;51.996;4.458;2024-03-29T02:49:12;9.48;;;2.00;;
25111;SDS011;13092;51.996;4.458;2024-03-29T02:51:38;7.45;;;1.67;;
25111;SDS011;13092;51.996;4.458;2024-03-29T02:54:05;4.63;;;1.80;;
25111;SDS011;13092;51.996;4.458;2024-03-29T02:56:31;8.15;;;1.73;;
25111;SDS011;13092;51.996;4.458;2024-03-29T02:59:00;6.50;;;1.80;;
25111;SDS011;13092;51.996;4.458;2024-03-29T03:01:26;4.65;;;1.88;;
25111;SDS011;13092;51.996;4.458;2024-03-29T03:03:53;7.32;;;1.70;;
25111;SDS011;13092;51.996;4.458;2024-03-29T03:06:19;6.32;;;1.60;;
25111;SDS011;13092;51.996;4.458;2024-03-29T03:08:47;7.25;;;1.58;;
25111;SDS011;13092;51.996;4.458;2024-03-29T03:11:31;6.97;;;2.00;;
25111;SDS011;13092;51.996;4.458;2024-03-29T03:14:00;5.95;;;1.65;;
25111;SDS011;13092;51.996;4.458;2024-03-29T03:16:30;4.20;;;1.42;;
25111;SDS011;13092;51.996;4.458;2024-03-29T03:18:56;5.95;;;1.60;;
25111;SDS011;13092;51.996;4.458;2024-03-29T03:21:23;2.70;;;1.50;;
25111;SDS011;13092;51.996;4.458;2024-03-29T03:23:50;4.30;;;1.40;;
25111;SDS011;13092;51.996;4.458;2024-03-29T03:26:17;4.18;;;1.30;;
25111;SDS011;13092;51.996;4.458;2024-03-29T03:28:43;3.58;;;1.30;;
25111;SDS011;13092;51.996;4.458;2024-03-29T03:31:11;4.07;;;1.50;;
25111;SDS011;13092;51.996;4.458;2024-03-29T03:33:38;6.60;;;1.27;;
25111;SDS011;13092;51.996;4.458;2024-03-29T03:36:05;5.07;;;1.30;;
25111;SDS011;13092;51.996;4.458;2024-03-29T03:38:34;3.42;;;1.20;;
25111;SDS011;13092;51.996;4.458;2024-03-29T03:41:03;3.72;;;1.30;;
25111;SDS011;13092;51.996;4.458;2024-03-29T03:43:29;5.53;;;1.38;;
25111;SDS011;13092;51.996;4.458;2024-03-29T03:45:59;3.20;;;1.52;;
25111;SDS011;13092;51.996;4.458;2024-03-29T03:48:28;3.75;;;1.45;;
25111;SDS011;13092;51.996;4.458;2024-03-29T03:50:55;3.25;;;0.93;;
25111;SDS011;13092;51.996;4.458;2024-03-29T03:53:21;2.53;;;1.10;;
25111;SDS011;13092;51.996;4.458;2024-03-29T03:55:48;2.17;;;0.93;;
25111;SDS011;13092;51.996;4.458;2024-03-29T03:58:15;3.08;;;1.10;;
25111;SDS011;13092;51.996;4.458;2024-03-29T04:00:42;2.28;;;0.98;;
25111;SDS011;13092;51.996;4.458;2024-03-29T04:03:08;2.40;;;1.10;;
25111;SDS011;13092;51.996;4.458;2024-03-29T04:05:37;2.13;;;0.82;;
25111;SDS011;13092;51.996;4.458;2024-03-29T04:08:05;2.20;;;1.10;;
25111;SDS011;13092;51.996;4.458;2024-03-29T04:10:32;3.03;;;1.20;;
25111;SDS011;13092;51.996;4.458;2024-03-29T04:13:03;4.03;;;1.10;;
25111;SDS011;13092;51.996;4.458;2024-03-29T04:15:30;2.08;;;1.00;;
25111;SDS011;13092;51.996;4.458;2024-03-29T04:17:58;2.47;;;0.93;;
25111;SDS011;13092;51.996;4.458;2024-03-29T04:20:26;3.08;;;0.93;;
25111;SDS011;13092;51.996;4.458;2024-03-29T04:22:53;3.40;;;0.93;;
25111;SDS011;13092;51.996;4.458;2024-03-29T04:25:20;3.35;;;0.90;;
25111;SDS011;13092;51.996;4.458;2024-03-29T04:27:46;3.53;;;0.93;;
25111;SDS011;13092;51.996;4.458;2024-03-29T04:30:13;2.92;;;1.00;;
25111;SDS011;13092;51.996;4.458;2024-03-29T04:32:40;0.73;;;0.40;;
25111;SDS011;13092;51.996;4.458;2024-03-29T04:35:07;1.42;;;0.70;;
25111;SDS011;13092;51.996;4.458;2024-03-29T04:37:34;2.72;;;0.68;;
25111;SDS011;13092;51.996;4.458;2024-03-29T04:40:02;4.00;;;0.80;;
25111;SDS011;13092;51.996;4.458;2024-03-29T04:42:33;2.33;;;0.80;;
25111;SDS011;13092;51.996;4.458;2024-03-29T04:45:03;1.63;;;0.82;;
25111;SDS011;13092;51.996;4.458;2024-03-29T04:47:31;4.55;;;1.10;;
25111;SDS011;13092;51.996;4.458;2024-03-29T04:49:58;2.40;;;1.20;;
25111;SDS011;13092;51.996;4.458;2024-03-29T04:52:26;4.47;;;1.55;;
25111;SDS011;13092;51.996;4.458;2024-03-29T04:54:53;2.40;;;1.15;;
25111;SDS011;13092;51.996;4.458;2024-03-29T04:57:21;1.88;;;0.95;;
25111;SDS011;13092;51.996;4.458;2024-03-29T04:59:48;2.67;;;1.20;;
25111;SDS011;13092;51.996;4.458;2024-03-29T05:02:16;2.85;;;1.30;;
25111;SDS011;13092;51.996;4.458;2024-03-29T05:04:46;1.65;;;1.00;;
25111;SDS011;13092;51.996;4.458;2024-03-29T05:07:13;2.67;;;1.50;;
25111;SDS011;13092;51.996;4.458;2024-03-29T05:09:41;2.95;;;1.05;;
25111;SDS011;13092;51.996;4.458;2024-03-29T05:12:09;2.17;;;0.88;;
25111;SDS011;13092;51.996;4.458;2024-03-29T05:14:37;3.15;;;0.82;;
25111;SDS011;13092;51.996;4.458;2024-03-29T05:17:04;1.73;;;1.10;;
25111;SDS011;13092;51.996;4.458;2024-03-29T05:19:32;1.08;;;0.93;;
25111;SDS011;13092;51.996;4.458;2024-03-29T05:21:59;4.53;;;1.08;;
25111;SDS011;13092;51.996;4.458;2024-03-29T05:24:29;3.72;;;1.20;;
25111;SDS011;13092;51.996;4.458;2024-03-29T05:26:56;0.80;;;0.80;;
25111;SDS011;13092;51.996;4.458;2024-03-29T05:29:23;4.07;;;1.25;;
25111;SDS011;13092;51.996;4.458;2024-03-29T05:31:52;2.55;;;1.20;;
25111;SDS011;13092;51.996;4.458;2024-03-29T05:34:19;3.22;;;1.60;;
25111;SDS011;13092;51.996;4.458;2024-03-29T05:36:47;4.05;;;1.50;;
25111;SDS011;13092;51.996;4.458;2024-03-29T05:39:15;3.17;;;1.50;;
25111;SDS011;13092;51.996;4.458;2024-03-29T05:41:44;6.03;;;2.25;;
25111;SDS011;13092;51.996;4.458;2024-03-29T05:44:13;4.93;;;2.28;;
25111;SDS011;13092;51.996;4.458;2024-03-29T05:46:41;4.38;;;2.35;;
25111;SDS011;13092;51.996;4.458;2024-03-29T05:49:09;3.97;;;3.17;;
25111;SDS011;13092;51.996;4.458;2024-03-29T05:51:36;3.22;;;2.92;;
25111;SDS011;13092;51.996;4.458;2024-03-29T05:54:04;5.20;;;4.60;;
25111;SDS011;13092;51.996;4.458;2024-03-29T05:56:31;4.85;;;4.32;;
25111;SDS011;13092;51.996;4.458;2024-03-29T05:58:59;4.50;;;4.10;;
25111;SDS011;13092;51.996;4.458;2024-03-29T06:01:26;5.50;;;4.82;;
25111;SDS011;13092;51.996;4.458;2024-03-29T06:03:53;8.20;;;7.40;;
25111;SDS011;13092;51.996;4.458;2024-03-29T06:06:23;6.68;;;5.85;;
25111;SDS011;13092;51.996;4.458;2024-03-29T06:08:50;6.95;;;6.20;;
25111;SDS011;13092;51.996;4.458;2024-03-29T06:11:17;8.23;;;7.55;;
25111;SDS011;13092;51.996;4.458;2024-03-29T06:13:45;11.07;;;10.35;;
25111;SDS011;13092;51.996;4.458;2024-03-29T06:16:29;9.85;;;9.20;;
25111;SDS011;13092;51.996;4.458;2024-03-29T06:19:14;12.52;;;11.57;;
25111;SDS011;13092;51.996;4.458;2024-03-29T06:21:43;18.55;;;17.42;;
25111;SDS011;13092;51.996;4.458;2024-03-29T06:24:11;18.42;;;17.30;;
25111;SDS011;13092;51.996;4.458;2024-03-29T06:26:39;22.42;;;21.08;;
25111;SDS011;13092;51.996;4.458;2024-03-29T06:29:07;26.98;;;25.40;;
25111;SDS011;13092;51.996;4.458;2024-03-29T06:31:34;28.70;;;27.00;;
25111;SDS011;13092;51.996;4.458;2024-03-29T06:34:02;31.08;;;29.25;;
25111;SDS011;13092;51.996;4.458;2024-03-29T06:36:29;35.80;;;33.65;;
25111;SDS011;13092;51.996;4.458;2024-03-29T06:38:57;38.55;;;36.30;;
25111;SDS011;13092;51.996;4.458;2024-03-29T06:41:24;40.60;;;38.17;;
25111;SDS011;13092;51.996;4.458;2024-03-29T06:43:52;42.30;;;39.60;;
25111;SDS011;13092;51.996;4.458;2024-03-29T06:46:19;42.83;;;40.28;;
25111;SDS011;13092;51.996;4.458;2024-03-29T06:48:46;44.50;;;41.65;;
25111;SDS011;13092;51.996;4.458;2024-03-29T06:51:14;45.63;;;42.80;;
25111;SDS011;13092;51.996;4.458;2024-03-29T06:53:41;48.17;;;45.17;;
25111;SDS011;13092;51.996;4.458;2024-03-29T06:56:13;44.80;;;42.08;;
25111;SDS011;13092;51.996;4.458;2024-03-29T06:58:42;45.53;;;42.78;;
25111;SDS011;13092;51.996;4.458;2024-03-29T07:01:12;46.35;;;43.42;;
25111;SDS011;13092;51.996;4.458;2024-03-29T07:03:43;45.15;;;42.40;;
25111;SDS011;13092;51.996;4.458;2024-03-29T07:06:11;46.83;;;43.78;;
25111;SDS011;13092;51.996;4.458;2024-03-29T07:08:38;47.65;;;44.65;;
25111;SDS011;13092;51.996;4.458;2024-03-29T07:11:05;47.03;;;44.25;;
25111;SDS011;13092;51.996;4.458;2024-03-29T07:13:34;44.78;;;42.20;;
25111;SDS011;13092;51.996;4.458;2024-03-29T07:16:02;43.63;;;41.03;;
25111;SDS011;13092;51.996;4.458;2024-03-29T07:18:30;42.05;;;39.50;;
25111;SDS011;13092;51.996;4.458;2024-03-29T07:20:57;39.25;;;36.92;;
25111;SDS011;13092;51.996;4.458;2024-03-29T07:23:24;38.47;;;36.25;;
25111;SDS011;13092;51.996;4.458;2024-03-29T07:25:58;40.17;;;37.80;;
25111;SDS011;13092;51.996;4.458;2024-03-29T07:28:25;42.20;;;39.63;;
25111;SDS011;13092;51.996;4.458;2024-03-29T07:30:54;44.72;;;41.95;;
25111;SDS011;13092;51.996;4.458;2024-03-29T07:33:22;43.78;;;41.15;;
25111;SDS011;13092;51.996;4.458;2024-03-29T07:35:51;41.38;;;39.00;;
25111;SDS011;13092;51.996;4.458;2024-03-29T07:38:19;40.10;;;37.83;;
25111;SDS011;13092;51.996;4.458;2024-03-29T07:40:47;39.50;;;37.25;;
25111;SDS011;13092;51.996;4.458;2024-03-29T07:43:14;34.83;;;32.70;;
25111;SDS011;13092;51.996;4.458;2024-03-29T07:45:41;33.90;;;31.95;;
25111;SDS011;13092;51.996;4.458;2024-03-29T07:48:11;32.38;;;30.52;;
25111;SDS011;13092;51.996;4.458;2024-03-29T07:50:39;34.78;;;32.78;;
25111;SDS011;13092;51.996;4.458;2024-03-29T07:53:07;28.38;;;26.67;;
25111;SDS011;13092;51.996;4.458;2024-03-29T07:55:35;26.90;;;25.23;;
25111;SDS011;13092;51.996;4.458;2024-03-29T07:58:02;24.60;;;23.00;;
25111;SDS011;13092;51.996;4.458;2024-03-29T08:00:30;24.23;;;22.63;;
25111;SDS011;13092;51.996;4.458;2024-03-29T08:02:58;23.92;;;22.40;;
25111;SDS011;13092;51.996;4.458;2024-03-29T08:05:29;29.88;;;27.95;;
25111;SDS011;13092;51.996;4.458;2024-03-29T08:07:59;28.13;;;26.33;;
25111;SDS011;13092;51.996;4.458;2024-03-29T08:10:29;24.33;;;22.77;;
25111;SDS011;13092;51.996;4.458;2024-03-29T08:12:56;23.83;;;22.25;;
25111;SDS011;13092;51.996;4.458;2024-03-29T08:15:28;23.73;;;22.10;;
25111;SDS011;13092;51.996;4.458;2024-03-29T08:17:55;19.75;;;18.38;;
25111;SDS011;13092;51.996;4.458;2024-03-29T08:20:22;19.33;;;17.85;;
25111;SDS011;13092;51.996;4.458;2024-03-29T08:22:56;19.85;;;18.40;;
25111;SDS011;13092;51.996;4.458;2024-03-29T08:25:26;17.17;;;15.85;;
25111;SDS011;13092;51.996;4.458;2024-03-29T08:27:55;14.82;;;13.52;;
25111;SDS011;13092;51.996;4.458;2024-03-29T08:30:24;9.98;;;9.00;;
25111;SDS011;13092;51.996;4.458;2024-03-29T08:32:54;7.85;;;7.15;;
25111;SDS011;13092;51.996;4.458;2024-03-29T08:35:22;8.00;;;7.30;;
25111;SDS011;13092;51.996;4.458;2024-03-29T08:37:49;7.43;;;5.78;;
25111;SDS011;13092;51.996;4.458;2024-03-29T08:40:18;5.38;;;4.82;;
25111;SDS011;13092;51.996;4.458;2024-03-29T08:42:45;5.10;;;4.18;;
25111;SDS011;13092;51.996;4.458;2024-03-29T08:45:13;4.93;;;3.60;;
25111;SDS011;13092;51.996;4.458;2024-03-29T08:47:40;2.95;;;2.65;;
25111;SDS011;13092;51.996;4.458;2024-03-29T08:50:09;5.57;;;3.03;;
25111;SDS011;13092;51.996;4.458;2024-03-29T08:52:38;4.05;;;2.60;;
25111;SDS011;13092;51.996;4.458;2024-03-29T08:55:05;3.33;;;2.38;;
25111;SDS011;13092;51.996;4.458;2024-03-29T08:57:35;2.88;;;2.60;;
25111;SDS011;13092;51.996;4.458;2024-03-29T09:00:03;4.13;;;2.92;;
25111;SDS011;13092;51.996;4.458;2024-03-29T09:02:32;5.57;;;2.60;;
25111;SDS011;13092;51.996;4.458;2024-03-29T09:04:59;2.38;;;2.17;;
25111;SDS011;13092;51.996;4.458;2024-03-29T09:07:27;3.97;;;2.40;;
25111;SDS011;13092;51.996;4.458;2024-03-29T09:09:54;8.45;;;2.67;;
25111;SDS011;13092;51.996;4.458;2024-03-29T09:12:22;3.17;;;2.58;;
25111;SDS011;13092;51.996;4.458;2024-03-29T09:14:50;4.25;;;2.30;;
25111;SDS011;13092;51.996;4.458;2024-03-29T09:17:18;3.80;;;2.10;;
25111;SDS011;13092;51.996;4.458;2024-03-29T09:19:50;2.88;;;2.10;;
25111;SDS011;13092;51.996;4.458;2024-03-29T09:22:18;2.38;;;2.17;;
25111;SDS011;13092;51.996;4.458;2024-03-29T09:24:46;3.35;;;1.85;;
25111;SDS011;13092;51.996;4.458;2024-03-29T09:27:13;5.78;;;2.40;;
25111;SDS011;13092;51.996;4.458;2024-03-29T09:29:41;3.60;;;1.83;;
25111;SDS011;13092;51.996;4.458;2024-03-29T09:32:09;2.40;;;1.92;;
25111;SDS011;13092;51.996;4.458;2024-03-29T09:34:50;1.63;;;1.50;;
25111;SDS011;13092;51.996;4.458;2024-03-29T09:37:17;1.50;;;1.40;;
25111;SDS011;13092;51.996;4.458;2024-03-29T09:39:45;1.42;;;1.33;;
25111;SDS011;13092;51.996;4.458;2024-03-29T09:42:15;1.30;;;1.20;;
25111;SDS011;13092;51.996;4.458;2024-03-29T09:44:44;3.33;;;1.30;;
25111;SDS011;13092;51.996;4.458;2024-03-29T09:47:14;5.80;;;1.20;;
25111;SDS011;13092;51.996;4.458;2024-03-29T09:49:44;1.55;;;1.23;;
25111;SDS011;13092;51.996;4.458;2024-03-29T09:52:15;1.90;;;1.58;;
25111;SDS011;13092;51.996;4.458;2024-03-29T09:54:43;3.08;;;1.55;;
25111;SDS011;13092;51.996;4.458;2024-03-29T09:57:17;2.67;;;1.80;;
25111;SDS011;13092;51.996;4.458;2024-03-29T09:59:44;2.95;;;1.77;;
25111;SDS011;13092;51.996;4.458;2024-03-29T10:02:15;2.45;;;1.83;;
25111;SDS011;13092;51.996;4.458;2024-03-29T10:04:43;4.82;;;2.10;;
25111;SDS011;13092;51.996;4.458;2024-03-29T10:07:12;3.20;;;2.03;;
25111;SDS011;13092;51.996;4.458;2024-03-29T10:09:40;2.45;;;2.05;;
25111;SDS011;13092;51.996;4.458;2024-03-29T10:12:09;3.03;;;2.22;;
25111;SDS011;13092;51.996;4.458;2024-03-29T10:14:43;5.05;;;2.20;;
25111;SDS011;13092;51.996;4.458;2024-03-29T10:17:16;4.57;;;2.35;;
25111;SDS011;13092;51.996;4.458;2024-03-29T10:19:44;3.95;;;1.83;;
25111;SDS011;13092;51.996;4.458;2024-03-29T10:22:11;3.22;;;2.25;;
25111;SDS011;13092;51.996;4.458;2024-03-29T10:24:39;5.47;;;2.35;;
25111;SDS011;13092;51.996;4.458;2024-03-29T10:27:09;7.63;;;2.20;;
25111;SDS011;13092;51.996;4.458;2024-03-29T10:29:36;3.08;;;1.75;;
25111;SDS011;13092;51.996;4.458;2024-03-29T10:32:03;2.45;;;2.08;;
25111;SDS011;13092;51.996;4.458;2024-03-29T10:34:33;4.22;;;1.90;;
25111;SDS011;13092;51.996;4.458;2024-03-29T10:37:01;3.13;;;1.88;;
25111;SDS011;13092;51.996;4.458;2024-03-29T10:39:29;2.80;;;1.80;;
25111;SDS011;13092;51.996;4.458;2024-03-29T10:41:59;2.85;;;1.80;;
25111;SDS011;13092;51.996;4.458;2024-03-29T10:44:28;4.25;;;1.85;;
25111;SDS011;13092;51.996;4.458;2024-03-29T10:46:56;2.72;;;2.08;;
25111;SDS011;13092;51.996;4.458;2024-03-29T10:49:24;5.50;;;2.33;;
25111;SDS011;13092;51.996;4.458;2024-03-29T10:51:53;3.40;;;2.30;;
25111;SDS011;13092;51.996;4.458;2024-03-29T10:54:22;4.40;;;2.25;;
25111;SDS011;13092;51.996;4.458;2024-03-29T10:56:52;3.03;;;2.25;;
25111;SDS011;13092;51.996;4.458;2024-03-29T10:59:34;4.10;;;2.60;;
25111;SDS011;13092;51.996;4.458;2024-03-29T11:02:10;4.18;;;2.33;;
25111;SDS011;13092;51.996;4.458;2024-03-29T11:04:40;4.75;;;2.63;;
25111;SDS011;13092;51.996;4.458;2024-03-29T11:07:12;4.32;;;3.03;;
25111;SDS011;13092;51.996;4.458;2024-03-29T11:09:45;3.83;;;2.78;;
25111;SDS011;13092;51.996;4.458;2024-03-29T11:12:18;6.20;;;3.28;;
25111;SDS011;13092;51.996;4.458;2024-03-29T11:14:48;4.22;;;2.80;;
25111;SDS011;13092;51.996;4.458;2024-03-29T11:17:23;4.25;;;2.60;;
25111;SDS011;13092;51.996;4.458;2024-03-29T11:19:51;5.95;;;3.40;;
25111;SDS011;13092;51.996;4.458;2024-03-29T11:22:27;4.30;;;2.95;;
25111;SDS011;13092;51.996;4.458;2024-03-29T11:24:55;4.50;;;2.78;;
25111;SDS011;13092;51.996;4.458;2024-03-29T11:27:23;3.88;;;2.60;;
25111;SDS011;13092;51.996;4.458;2024-03-29T11:29:51;6.57;;;2.90;;
25111;SDS011;13092;51.996;4.458;2024-03-29T11:32:33;5.68;;;3.08;;
25111;SDS011;13092;51.996;4.458;2024-03-29T11:35:01;5.05;;;3.33;;
25111;SDS011;13092;51.996;4.458;2024-03-29T11:37:30;3.90;;;3.30;;
25111;SDS011;13092;51.996;4.458;2024-03-29T11:39:58;4.80;;;3.90;;
25111;SDS011;13092;51.996;4.458;2024-03-29T11:42:35;6.00;;;4.30;;
25111;SDS011;13092;51.996;4.458;2024-03-29T11:45:04;4.57;;;3.67;;
25111;SDS011;13092;51.996;4.458;2024-03-29T11:47:35;5.30;;;4.00;;
25111;SDS011;13092;51.996;4.458;2024-03-29T11:50:06;7.32;;;4.20;;
25111;SDS011;13092;51.996;4.458;2024-03-29T11:52:36;5.63;;;4.10;;
25111;SDS011;13092;51.996;4.458;2024-03-29T11:55:07;6.28;;;4.40;;
25111;SDS011;13092;51.996;4.458;2024-03-29T11:57:35;6.38;;;4.75;;
25111;SDS011;13092;51.996;4.458;2024-03-29T12:00:06;8.55;;;4.80;;
25111;SDS011;13092;51.996;4.458;2024-03-29T12:02:35;5.30;;;4.80;;
25111;SDS011;13092;51.996;4.458;2024-03-29T12:05:05;6.00;;;5.22;;
25111;SDS011;13092;51.996;4.458;2024-03-29T12:07:33;6.38;;;5.13;;
25111;SDS011;13092;51.996;4.458;2024-03-29T12:10:03;7.28;;;5.50;;
25111;SDS011;13092;51.996;4.458;2024-03-29T12:12:30;7.28;;;5.40;;
25111;SDS011;13092;51.996;4.458;2024-03-29T12:15:03;7.25;;;5.22;;
25111;SDS011;13092;51.996;4.458;2024-03-29T12:17:33;6.63;;;5.35;;
25111;SDS011;13092;51.996;4.458;2024-03-29T12:20:05;8.35;;;5.40;;
25111;SDS011;13092;51.996;4.458;2024-03-29T12:22:38;6.13;;;4.55;;
25111;SDS011;13092;51.996;4.458;2024-03-29T12:25:06;7.07;;;5.30;;
25111;SDS011;13092;51.996;4.458;2024-03-29T12:27:36;6.70;;;5.07;;
25111;SDS011;13092;51.996;4.458;2024-03-29T12:30:04;6.55;;;5.50;;
25111;SDS011;13092;51.996;4.458;2024-03-29T12:32:33;5.78;;;4.30;;
25111;SDS011;13092;51.996;4.458;2024-03-29T12:35:06;7.03;;;4.80;;
25111;SDS011;13092;51.996;4.458;2024-03-29T12:37:35;5.93;;;4.75;;
25111;SDS011;13092;51.996;4.458;2024-03-29T12:40:06;4.88;;;4.10;;
25111;SDS011;13092;51.996;4.458;2024-03-29T12:42:38;8.63;;;4.60;;
25111;SDS011;13092;51.996;4.458;2024-03-29T12:45:07;7.22;;;4.13;;
25111;SDS011;13092;51.996;4.458;2024-03-29T12:47:36;5.50;;;3.92;;
25111;SDS011;13092;51.996;4.458;2024-03-29T12:50:03;6.40;;;3.70;;
25111;SDS011;13092;51.996;4.458;2024-03-29T12:52:36;7.60;;;4.15;;
25111;SDS011;13092;51.996;4.458;2024-03-29T12:55:05;5.95;;;4.43;;
25111;SDS011;13092;51.996;4.458;2024-03-29T12:57:34;5.43;;;3.40;;
25111;SDS011;13092;51.996;4.458;2024-03-29T13:00:01;5.38;;;3.30;;
25111;SDS011;13092;51.996;4.458;2024-03-29T13:02:34;4.43;;;2.30;;
25111;SDS011;13092;51.996;4.458;2024-03-29T13:05:03;5.38;;;2.40;;
25111;SDS011;13092;51.996;4.458;2024-03-29T13:07:30;5.40;;;2.30;;
25111;SDS011;13092;51.996;4.458;2024-03-29T13:09:58;7.93;;;2.95;;
25111;SDS011;13092;51.996;4.458;2024-03-29T13:12:30;4.68;;;2.78;;
25111;SDS011;13092;51.996;4.458;2024-03-29T13:15:02;6.60;;;2.80;;
25111;SDS011;13092;51.996;4.458;2024-03-29T13:17:30;3.88;;;2.50;;
25111;SDS011;13092;51.996;4.458;2024-03-29T13:19:58;4.97;;;2.83;;
25111;SDS011;13092;51.996;4.458;2024-03-29T13:22:25;5.25;;;2.80;;
25111;SDS011;13092;51.996;4.458;2024-03-29T13:24:55;6.78;;;3.45;;
25111;SDS011;13092;51.996;4.458;2024-03-29T13:27:22;6.53;;;2.80;;
25111;SDS011;13092;51.996;4.458;2024-03-29T13:29:51;5.70;;;2.85;;
25111;SDS011;13092;51.996;4.458;2024-03-29T13:32:18;8.60;;;3.08;;
25111;SDS011;13092;51.996;4.458;2024-03-29T13:34:45;6.55;;;3.20;;
25111;SDS011;13092;51.996;4.458;2024-03-29T13:37:13;4.38;;;2.75;;
25111;SDS011;13092;51.996;4.458;2024-03-29T13:39:40;5.00;;;3.00;;
25111;SDS011;13092;51.996;4.458;2024-03-29T13:42:07;5.78;;;2.85;;
25111;SDS011;13092;51.996;4.458;2024-03-29T13:44:34;5.78;;;2.60;;
25111;SDS011;13092;51.996;4.458;2024-03-29T13:47:03;3.80;;;2.88;;
25111;SDS011;13092;51.996;4.458;2024-03-29T13:49:34;4.45;;;3.00;;
25111;SDS011;13092;51.996;4.458;2024-03-29T13:52:01;4.03;;;2.45;;
25111;SDS011;13092;51.996;4.458;2024-03-29T13:54:31;4.93;;;2.30;;
25111;SDS011;13092;51.996;4.458;2024-03-29T13:57:01;3.75;;;2.30;;
25111;SDS011;13092;51.996;4.458;2024-03-29T13:59:29;6.10;;;3.08;;
25111;SDS011;13092;51.996;4.458;2024-03-29T14:01:56;3.53;;;2.35;;
25111;SDS011;13092;51.996;4.458;2024-03-29T14:04:25;2.47;;;2.05;;
25111;SDS011;13092;51.996;4.458;2024-03-29T14:06:52;2.70;;;2.17;;
25111;SDS011;13092;51.996;4.458;2024-03-29T14:09:19;6.47;;;2.17;;
25111;SDS011;13092;51.996;4.458;2024-03-29T14:11:46;5.25;;;1.90;;
25111;SDS011;13092;51.996;4.458;2024-03-29T14:14:13;4.85;;;2.10;;
25111;SDS011;13092;51.996;4.458;2024-03-29T14:16:41;4.10;;;2.08;;
25111;SDS011;13092;51.996;4.458;2024-03-29T14:19:08;2.67;;;1.90;;
25111;SDS011;13092;51.996;4.458;2024-03-29T14:21:39;4.55;;;2.08;;
25111;SDS011;13092;51.996;4.458;2024-03-29T14:24:06;2.67;;;1.95;;
25111;SDS011;13092;51.996;4.458;2024-03-29T14:26:33;5.63;;;2.40;;
25111;SDS011;13092;51.996;4.458;2024-03-29T14:29:01;3.40;;;2.20;;
25111;SDS011;13092;51.996;4.458;2024-03-29T14:31:28;4.78;;;2.00;;
25111;SDS011;13092;51.996;4.458;2024-03-29T14:33:55;2.80;;;2.22;;
25111;SDS011;13092;51.996;4.458;2024-03-29T14:36:23;4.00;;;2.10;;
25111;SDS011;13092;51.996;4.458;2024-03-29T14:38:52;3.25;;;2.00;;
25111;SDS011;13092;51.996;4.458;2024-03-29T14:41:21;4.07;;;2.40;;
25111;SDS011;13092;51.996;4.458;2024-03-29T14:43:48;2.35;;;2.13;;
25111;SDS011;13092;51.996;4.458;2024-03-29T14:46:17;2.33;;;2.00;;
25111;SDS011;13092;51.996;4.458;2024-03-29T14:48:46;5.75;;;1.90;;
25111;SDS011;13092;51.996;4.458;2024-03-29T14:51:13;1.98;;;1.70;;